sensor_id;sensor_type;location;lat;lon;timestamp;pressure;altitude;pressure_sealevel;temperature;humidity
61408;BME280;47274;43.054;25.146;2023-05-07T00:01:59;95857.13;;;11.19;100.00
61408;BME280;47274;43.054;25.146;2023-05-07T00:04:24;95846.22;;;11.07;100.00
61408;BME280;47274;43.054;25.146;2023-05-07T00:06:50;95829.91;;;10.98;100.00
61408;BME280;47274;43.054;25.146;2023-05-07T00:09:16;95832.75;;;10.95;100.00
61408;BME280;47274;43.054;25.146;2023-05-07T00:11:42;95848.69;;;10.99;100.00
61408;BME280;47274;43.054;25.146;2023-05-07T00:14:08;95846.41;;;10.96;99.40
61408;BME280;47274;43.054;25.146;2023-05-07T00:16:33;95857.75;;;10.93;98.51
61408;BME280;47274;43.054;25.146;2023-05-07T00:18:59;95865.59;;;10.91;98.06
61408;BME280;47274;43.054;25.146;2023-05-07T00:21:25;95836.88;;;10.68;97.54
61408;BME280;47274;43.054;25.146;2023-05-07T00:23:54;95859.88;;;10.70;97.80
61408;BME280;47274;43.054;25.146;2023-05-07T00:26:20;95841.91;;;10.60;97.33
61408;BME280;47274;43.054;25.146;2023-05-07T00:28:49;95851.47;;;10.78;93.96
61408;BME280;47274;43.054;25.146;2023-05-07T00:31:14;95832.94;;;10.84;91.56
61408;BME280;47274;43.054;25.146;2023-05-07T00:33:40;95821.78;;;11.03;88.71
61408;BME280;47274;43.054;25.146;2023-05-07T00:36:06;95841.16;;;11.25;86.67
61408;BME280;47274;43.054;25.146;2023-05-07T00:38:32;95854.19;;;11.41;85.05
61408;BME280;47274;43.054;25.146;2023-05-07T00:40:58;95852.00;;;11.46;82.27
61408;BME280;47274;43.054;25.146;2023-05-07T00:43:24;95832.16;;;11.38;80.74
61408;BME280;47274;43.054;25.146;2023-05-07T00:45:50;95852.66;;;11.48;81.94
61408;BME280;47274;43.054;25.146;2023-05-07T00:48:15;95846.34;;;11.43;84.77
61408;BME280;47274;43.054;25.146;2023-05-07T00:50:42;95840.47;;;11.23;89.55
61408;BME280;47274;43.054;25.146;2023-05-07T00:53:07;95853.75;;;11.18;89.14
61408;BME280;47274;43.054;25.146;2023-05-07T00:55:35;95825.78;;;11.15;85.39
61408;BME280;47274;43.054;25.146;2023-05-07T00:58:01;95836.94;;;11.24;85.75
61408;BME280;47274;43.054;25.146;2023-05-07T01:00:26;95824.06;;;11.06;87.75
61408;BME280;47274;43.054;25.146;2023-05-07T01:02:52;95819.13;;;10.95;90.40
61408;BME280;47274;43.054;25.146;2023-05-07T01:05:20;95853.38;;;11.13;88.24
61408;BME280;47274;43.054;25.146;2023-05-07T01:07:49;95856.47;;;11.17;89.18
61408;BME280;47274;43.054;25.146;2023-05-07T01:10:15;95842.84;;;11.06;89.90
61408;BME280;47274;43.054;25.146;2023-05-07T01:12:43;95845.44;;;10.97;93.46
61408;BME280;47274;43.054;25.146;2023-05-07T01:15:10;95841.84;;;10.80;93.12
61408;BME280;47274;43.054;25.146;2023-05-07T01:17:40;95838.47;;;10.79;94.56
61408;BME280;47274;43.054;25.146;2023-05-07T01:20:10;95832.69;;;10.77;91.91
61408;BME280;47274;43.054;25.146;2023-05-07T01:22:38;95861.78;;;11.05;86.55
61408;BME280;47274;43.054;25.146;2023-05-07T01:25:06;95847.47;;;11.03;83.33
61408;BME280;47274;43.054;25.146;2023-05-07T01:27:33;95834.50;;;11.04;78.71
61408;BME280;47274;43.054;25.146;2023-05-07T01:29:59;95857.50;;;11.24;76.66
61408;BME280;47274;43.054;25.146;2023-05-07T01:32:35;95837.09;;;11.22;76.45
61408;BME280;47274;43.054;25.146;2023-05-07T01:35:05;95836.91;;;11.06;84.33
61408;BME280;47274;43.054;25.146;2023-05-07T01:37:33;95827.22;;;10.90;87.46
61408;BME280;47274;43.054;25.146;2023-05-07T01:40:01;95844.13;;;10.93;89.19
61408;BME280;47274;43.054;25.146;2023-05-07T01:42:28;95840.50;;;10.76;92.35
61408;BME280;47274;43.054;25.146;2023-05-07T01:44:55;95834.22;;;10.60;97.37
61408;BME280;47274;43.054;25.146;2023-05-07T01:47:21;95839.88;;;10.64;98.88
61408;BME280;47274;43.054;25.146;2023-05-07T01:49:48;95830.06;;;10.40;100.00
61408;BME280;47274;43.054;25.146;2023-05-07T01:52:14;95826.69;;;10.30;100.00
61408;BME280;47274;43.054;25.146;2023-05-07T01:54:40;95825.72;;;10.21;100.00
61408;BME280;47274;43.054;25.146;2023-05-07T01:57:06;95822.09;;;10.24;100.00
61408;BME280;47274;43.054;25.146;2023-05-07T01:59:32;95813.84;;;10.20;100.00
61408;BME280;47274;43.054;25.146;2023-05-07T02:01:58;95806.59;;;10.06;100.00
61408;BME280;47274;43.054;25.146;2023-05-07T02:04:24;95804.44;;;9.91;100.00
61408;BME280;47274;43.054;25.146;2023-05-07T02:06:51;95801.59;;;9.85;100.00
61408;BME280;47274;43.054;25.146;2023-05-07T02:09:19;95795.50;;;9.76;100.00
61408;BME280;47274;43.054;25.146;2023-05-07T02:11:47;95798.50;;;9.71;100.00
61408;BME280;47274;43.054;25.146;2023-05-07T02:14:13;95772.84;;;9.62;100.00
61408;BME280;47274;43.054;25.146;2023-05-07T02:16:39;95798.34;;;9.73;100.00
61408;BME280;47274;43.054;25.146;2023-05-07T02:19:05;95810.34;;;9.72;100.00
61408;BME280;47274;43.054;25.146;2023-05-07T02:21:31;95795.88;;;9.42;100.00
61408;BME280;47274;43.054;25.146;2023-05-07T02:23:57;95813.69;;;9.44;100.00
61408;BME280;47274;43.054;25.146;2023-05-07T02:26:23;95789.66;;;9.35;100.00
61408;BME280;47274;43.054;25.146;2023-05-07T02:28:48;95807.72;;;9.43;100.00
61408;BME280;47274;43.054;25.146;2023-05-07T02:31:14;95803.13;;;9.28;100.00
61408;BME280;47274;43.054;25.146;2023-05-07T02:33:40;95796.53;;;9.25;100.00
61408;BME280;47274;43.054;25.146;2023-05-07T02:36:12;95791.78;;;9.11;100.00
61408;BME280;47274;43.054;25.146;2023-05-07T02:38:47;95794.03;;;9.04;100.00
61408;BME280;47274;43.054;25.146;2023-05-07T02:41:13;95801.22;;;9.10;100.00
61408;BME280;47274;43.054;25.146;2023-05-07T02:43:39;95789.06;;;9.02;100.00
61408;BME280;47274;43.054;25.146;2023-05-07T02:46:07;95801.88;;;9.12;100.00
61408;BME280;47274;43.054;25.146;2023-05-07T02:48:36;95789.50;;;9.17;100.00
61408;BME280;47274;43.054;25.146;2023-05-07T02:51:02;95792.22;;;9.25;100.00
61408;BME280;47274;43.054;25.146;2023-05-07T02:53:29;95782.50;;;9.29;100.00
61408;BME280;47274;43.054;25.146;2023-05-07T02:55:56;95775.38;;;9.33;100.00
61408;BME280;47274;43.054;25.146;2023-05-07T02:58:23;95790.47;;;9.36;100.00
61408;BME280;47274;43.054;25.146;2023-05-07T03:00:49;95800.34;;;9.50;100.00
61408;BME280;47274;43.054;25.146;2023-05-07T03:03:38;95797.66;;;9.52;100.00
61408;BME280;47274;43.054;25.146;2023-05-07T03:06:04;95803.19;;;9.47;100.00
61408;BME280;47274;43.054;25.146;2023-05-07T03:08:29;95784.53;;;9.25;100.00
61408;BME280;47274;43.054;25.146;2023-05-07T03:10:55;95813.97;;;9.51;100.00
61408;BME280;47274;43.054;25.146;2023-05-07T03:13:21;95808.19;;;9.58;99.74
61408;BME280;47274;43.054;25.146;2023-05-07T03:15:47;95813.31;;;9.78;96.44
61408;BME280;47274;43.054;25.146;2023-05-07T03:18:13;95817.63;;;9.77;95.29
61408;BME280;47274;43.054;25.146;2023-05-07T03:20:39;95816.00;;;9.76;95.58
61408;BME280;47274;43.054;25.146;2023-05-07T03:23:05;95805.91;;;9.75;96.28
61408;BME280;47274;43.054;25.146;2023-05-07T03:25:31;95808.75;;;9.81;96.01
61408;BME280;47274;43.054;25.146;2023-05-07T03:27:58;95787.41;;;9.81;93.25
61408;BME280;47274;43.054;25.146;2023-05-07T03:30:30;95805.47;;;10.08;91.59
61408;BME280;47274;43.054;25.146;2023-05-07T03:32:56;95808.59;;;10.12;89.36
61408;BME280;47274;43.054;25.146;2023-05-07T03:35:22;95809.25;;;10.24;86.01
61408;BME280;47274;43.054;25.146;2023-05-07T03:37:48;95806.72;;;10.33;83.14
61408;BME280;47274;43.054;25.146;2023-05-07T03:40:14;95812.66;;;10.34;87.88
61408;BME280;47274;43.054;25.146;2023-05-07T03:42:45;95806.59;;;10.15;88.22
61408;BME280;47274;43.054;25.146;2023-05-07T03:45:12;95819.25;;;10.17;88.72
61408;BME280;47274;43.054;25.146;2023-05-07T03:47:42;95817.53;;;10.27;87.65
61408;BME280;47274;43.054;25.146;2023-05-07T03:50:09;95813.34;;;10.36;86.32
61408;BME280;47274;43.054;25.146;2023-05-07T03:52:36;95810.63;;;10.37;83.31
61408;BME280;47274;43.054;25.146;2023-05-07T03:55:03;95799.81;;;10.43;80.49
61408;BME280;47274;43.054;25.146;2023-05-07T03:57:32;95810.34;;;10.50;77.84
61408;BME280;47274;43.054;25.146;2023-05-07T03:59:59;95816.78;;;10.64;75.25
61408;BME280;47274;43.054;25.146;2023-05-07T04:02:25;95817.59;;;10.64;76.10
61408;BME280;47274;43.054;25.146;2023-05-07T04:04:51;95797.88;;;10.55;74.53
61408;BME280;47274;43.054;25.146;2023-05-07T04:07:18;95808.91;;;10.75;76.04
61408;BME280;47274;43.054;25.146;2023-05-07T04:09:48;95828.34;;;10.78;77.31
61408;BME280;47274;43.054;25.146;2023-05-07T04:12:15;95828.63;;;10.84;78.55
61408;BME280;47274;43.054;25.146;2023-05-07T04:14:41;95820.41;;;10.71;80.69
61408;BME280;47274;43.054;25.146;2023-05-07T04:17:07;95812.16;;;10.77;86.12
61408;BME280;47274;43.054;25.146;2023-05-07T04:19:37;95830.25;;;10.76;91.05
61408;BME280;47274;43.054;25.146;2023-05-07T04:22:03;95833.50;;;10.68;89.61
61408;BME280;47274;43.054;25.146;2023-05-07T04:24:32;95813.44;;;10.54;93.06
61408;BME280;47274;43.054;25.146;2023-05-07T04:27:00;95817.63;;;10.45;94.97
61408;BME280;47274;43.054;25.146;2023-05-07T04:29:25;95824.25;;;10.48;95.00
61408;BME280;47274;43.054;25.146;2023-05-07T04:31:51;95826.53;;;10.51;93.27
61408;BME280;47274;43.054;25.146;2023-05-07T04:34:17;95845.38;;;10.69;89.12
61408;BME280;47274;43.054;25.146;2023-05-07T04:36:43;95840.13;;;10.71;81.78
61408;BME280;47274;43.054;25.146;2023-05-07T04:39:11;95823.03;;;10.89;83.33
61408;BME280;47274;43.054;25.146;2023-05-07T04:41:40;95846.06;;;11.18;76.46
61408;BME280;47274;43.054;25.146;2023-05-07T04:44:07;95852.28;;;11.15;78.47
61408;BME280;47274;43.054;25.146;2023-05-07T04:46:35;95837.09;;;11.22;76.69
61408;BME280;47274;43.054;25.146;2023-05-07T04:49:01;95841.44;;;11.22;77.66
61408;BME280;47274;43.054;25.146;2023-05-07T04:51:27;95834.78;;;11.29;73.58
61408;BME280;47274;43.054;25.146;2023-05-07T04:53:54;95845.53;;;11.42;75.48
61408;BME280;47274;43.054;25.146;2023-05-07T04:56:19;95845.81;;;11.39;77.46
61408;BME280;47274;43.054;25.146;2023-05-07T04:58:46;95851.84;;;11.48;74.83
61408;BME280;47274;43.054;25.146;2023-05-07T05:01:14;95850.47;;;11.53;76.19
61408;BME280;47274;43.054;25.146;2023-05-07T05:03:40;95852.75;;;11.84;75.64
61408;BME280;47274;43.054;25.146;2023-05-07T05:06:07;95852.97;;;11.91;67.36
61408;BME280;47274;43.054;25.146;2023-05-07T05:08:33;95843.34;;;12.11;69.22
61408;BME280;47274;43.054;25.146;2023-05-07T05:11:02;95866.34;;;12.30;68.03
61408;BME280;47274;43.054;25.146;2023-05-07T05:13:29;95845.22;;;12.44;66.40
61408;BME280;47274;43.054;25.146;2023-05-07T05:15:56;95854.47;;;12.81;66.65
61408;BME280;47274;43.054;25.146;2023-05-07T05:18:23;95847.50;;;12.73;63.85
61408;BME280;47274;43.054;25.146;2023-05-07T05:20:51;95872.00;;;13.03;67.93
61408;BME280;47274;43.054;25.146;2023-05-07T05:23:17;95874.50;;;13.21;65.94
61408;BME280;47274;43.054;25.146;2023-05-07T05:25:43;95870.09;;;13.40;67.28
61408;BME280;47274;43.054;25.146;2023-05-07T05:28:11;95852.91;;;13.48;64.60
61408;BME280;47274;43.054;25.146;2023-05-07T05:30:38;95870.28;;;13.46;65.07
61408;BME280;47274;43.054;25.146;2023-05-07T05:33:04;95876.84;;;13.75;63.61
61408;BME280;47274;43.054;25.146;2023-05-07T05:35:30;95877.66;;;13.75;61.38
61408;BME280;47274;43.054;25.146;2023-05-07T05:37:58;95885.31;;;13.59;62.61
61408;BME280;47274;43.054;25.146;2023-05-07T05:40:24;95872.81;;;13.72;58.91
61408;BME280;47274;43.054;25.146;2023-05-07T05:42:49;95877.03;;;13.90;59.96
61408;BME280;47274;43.054;25.146;2023-05-07T05:45:16;95875.88;;;13.84;58.75
61408;BME280;47274;43.054;25.146;2023-05-07T05:47:44;95863.47;;;13.71;56.83
61408;BME280;47274;43.054;25.146;2023-05-07T05:50:10;95860.41;;;13.84;59.60
61408;BME280;47274;43.054;25.146;2023-05-07T05:52:36;95869.44;;;13.80;62.29
61408;BME280;47274;43.054;25.146;2023-05-07T05:55:02;95872.00;;;13.72;62.30
61408;BME280;47274;43.054;25.146;2023-05-07T05:57:28;95874.09;;;13.77;66.36
61408;BME280;47274;43.054;25.146;2023-05-07T05:59:54;95892.63;;;13.72;62.22
61408;BME280;47274;43.054;25.146;2023-05-07T06:02:20;95883.97;;;13.89;62.96
61408;BME280;47274;43.054;25.146;2023-05-07T06:04:46;95895.41;;;13.87;66.51
61408;BME280;47274;43.054;25.146;2023-05-07T06:07:16;95901.38;;;13.87;64.36
61408;BME280;47274;43.054;25.146;2023-05-07T06:09:42;95898.41;;;13.74;68.97
61408;BME280;47274;43.054;25.146;2023-05-07T06:12:08;95905.41;;;13.82;67.92
61408;BME280;47274;43.054;25.146;2023-05-07T06:14:34;95893.19;;;14.08;68.08
61408;BME280;47274;43.054;25.146;2023-05-07T06:17:00;95892.00;;;13.78;66.44
61408;BME280;47274;43.054;25.146;2023-05-07T06:19:26;95900.13;;;14.08;66.82
61408;BME280;47274;43.054;25.146;2023-05-07T06:21:55;95896.97;;;14.55;67.45
61408;BME280;47274;43.054;25.146;2023-05-07T06:24:23;95891.00;;;14.54;65.01
61408;BME280;47274;43.054;25.146;2023-05-07T06:26:50;95901.31;;;14.87;66.92
61408;BME280;47274;43.054;25.146;2023-05-07T06:29:15;95889.94;;;15.21;64.93
61408;BME280;47274;43.054;25.146;2023-05-07T06:31:42;95901.63;;;15.00;66.35
61408;BME280;47274;43.054;25.146;2023-05-07T06:34:09;95907.94;;;14.89;62.25
61408;BME280;47274;43.054;25.146;2023-05-07T06:36:37;95894.06;;;14.82;66.55
61408;BME280;47274;43.054;25.146;2023-05-07T06:39:29;95902.47;;;14.84;63.30
61408;BME280;47274;43.054;25.146;2023-05-07T06:41:55;95885.31;;;15.08;65.71
61408;BME280;47274;43.054;25.146;2023-05-07T06:44:25;95885.47;;;15.06;62.77
61408;BME280;47274;43.054;25.146;2023-05-07T06:47:10;95898.16;;;15.24;66.20
61408;BME280;47274;43.054;25.146;2023-05-07T06:49:38;95899.13;;;15.31;59.20
61408;BME280;47274;43.054;25.146;2023-05-07T06:52:04;95900.97;;;15.14;59.72
61408;BME280;47274;43.054;25.146;2023-05-07T06:54:29;95898.22;;;15.63;62.43
61408;BME280;47274;43.054;25.146;2023-05-07T06:56:55;95892.47;;;15.84;62.92
61408;BME280;47274;43.054;25.146;2023-05-07T06:59:24;95887.06;;;15.63;63.68
61408;BME280;47274;43.054;25.146;2023-05-07T07:01:50;95901.69;;;15.87;61.15
61408;BME280;47274;43.054;25.146;2023-05-07T07:04:16;95880.09;;;15.72;63.82
61408;BME280;47274;43.054;25.146;2023-05-07T07:06:46;95897.19;;;16.12;65.44
61408;BME280;47274;43.054;25.146;2023-05-07T07:09:13;95900.94;;;16.32;58.54
61408;BME280;47274;43.054;25.146;2023-05-07T07:11:40;95902.22;;;16.05;60.27
61408;BME280;47274;43.054;25.146;2023-05-07T07:14:06;95903.25;;;16.27;59.29
61408;BME280;47274;43.054;25.146;2023-05-07T07:16:38;95895.38;;;16.13;53.80
61408;BME280;47274;43.054;25.146;2023-05-07T07:19:04;95909.56;;;16.25;53.85
61408;BME280;47274;43.054;25.146;2023-05-07T07:21:29;95895.84;;;16.85;49.33
61408;BME280;47274;43.054;25.146;2023-05-07T07:23:56;95921.19;;;17.13;51.80
61408;BME280;47274;43.054;25.146;2023-05-07T07:26:22;95902.25;;;17.42;45.22
61408;BME280;47274;43.054;25.146;2023-05-07T07:28:47;95903.50;;;17.46;48.85
61408;BME280;47274;43.054;25.146;2023-05-07T07:31:17;95913.59;;;17.26;46.50
61408;BME280;47274;43.054;25.146;2023-05-07T07:33:43;95895.34;;;17.04;46.91
61408;BME280;47274;43.054;25.146;2023-05-07T07:36:09;95924.19;;;16.87;44.50
61408;BME280;47274;43.054;25.146;2023-05-07T07:38:36;95929.78;;;17.13;47.20
61408;BME280;47274;43.054;25.146;2023-05-07T07:41:02;95913.59;;;17.26;46.78
61408;BME280;47274;43.054;25.146;2023-05-07T07:43:29;95909.31;;;16.80;45.65
61408;BME280;47274;43.054;25.146;2023-05-07T07:45:55;95925.00;;;16.87;43.73
61408;BME280;47274;43.054;25.146;2023-05-07T07:48:21;95925.91;;;17.09;47.78
61408;BME280;47274;43.054;25.146;2023-05-07T07:50:51;95925.75;;;16.96;45.39
61408;BME280;47274;43.054;25.146;2023-05-07T07:53:18;95924.78;;;17.56;46.91
61408;BME280;47274;43.054;25.146;2023-05-07T07:55:44;95897.56;;;17.08;47.06
61408;BME280;47274;43.054;25.146;2023-05-07T07:58:14;95854.41;;;17.00;47.91
61408;BME280;47274;43.054;25.146;2023-05-07T08:00:40;95916.94;;;18.15;44.48
61408;BME280;47274;43.054;25.146;2023-05-07T08:03:09;95908.84;;;17.59;43.85
61408;BME280;47274;43.054;25.146;2023-05-07T08:05:38;95884.50;;;17.75;45.08
61408;BME280;47274;43.054;25.146;2023-05-07T08:08:05;95892.00;;;17.99;41.98
61408;BME280;47274;43.054;25.146;2023-05-07T08:10:33;95899.94;;;17.98;41.54
61408;BME280;47274;43.054;25.146;2023-05-07T08:13:05;95900.06;;;17.60;43.56
61408;BME280;47274;43.054;25.146;2023-05-07T08:15:32;95896.13;;;17.94;41.66
61408;BME280;47274;43.054;25.146;2023-05-07T08:17:58;95914.78;;;17.83;40.44
61408;BME280;47274;43.054;25.146;2023-05-07T08:20:26;95916.31;;;18.13;41.71
61408;BME280;47274;43.054;25.146;2023-05-07T08:22:52;95886.94;;;18.13;40.40
61408;BME280;47274;43.054;25.146;2023-05-07T08:25:19;95894.56;;;18.79;39.13
61408;BME280;47274;43.054;25.146;2023-05-07T08:27:45;95909.75;;;19.03;38.96
61408;BME280;47274;43.054;25.146;2023-05-07T08:30:15;95903.22;;;18.86;36.97
61408;BME280;47274;43.054;25.146;2023-05-07T08:32:41;95911.69;;;18.09;36.52
61408;BME280;47274;43.054;25.146;2023-05-07T08:35:07;95880.88;;;18.27;38.79
61408;BME280;47274;43.054;25.146;2023-05-07T08:37:34;95904.75;;;19.36;36.64
61408;BME280;47274;43.054;25.146;2023-05-07T08:40:00;95909.81;;;18.24;37.73
61408;BME280;47274;43.054;25.146;2023-05-07T08:42:31;95902.63;;;18.84;37.31
61408;BME280;47274;43.054;25.146;2023-05-07T08:45:02;95877.22;;;19.55;36.64
61408;BME280;47274;43.054;25.146;2023-05-07T08:47:55;95901.31;;;20.19;35.85
61408;BME280;47274;43.054;25.146;2023-05-07T08:50:25;95895.34;;;19.70;34.48
61408;BME280;47274;43.054;25.146;2023-05-07T08:52:51;95900.97;;;19.39;37.10
61408;BME280;47274;43.054;25.146;2023-05-07T08:55:18;95861.34;;;19.85;35.98
61408;BME280;47274;43.054;25.146;2023-05-07T08:57:46;95882.34;;;20.78;36.72
61408;BME280;47274;43.054;25.146;2023-05-07T09:00:14;95889.59;;;20.63;35.68
61408;BME280;47274;43.054;25.146;2023-05-07T09:02:41;95881.66;;;20.23;35.87
61408;BME280;47274;43.054;25.146;2023-05-07T09:05:09;95883.75;;;20.87;35.13
61408;BME280;47274;43.054;25.146;2023-05-07T09:07:36;95898.34;;;20.42;35.06
61408;BME280;47274;43.054;25.146;2023-05-07T09:10:05;95873.06;;;19.26;37.31
61408;BME280;47274;43.054;25.146;2023-05-07T09:12:33;95869.28;;;20.45;37.91
61408;BME280;47274;43.054;25.146;2023-05-07T09:15:02;95862.88;;;20.54;37.33
61408;BME280;47274;43.054;25.146;2023-05-07T09:17:29;95868.97;;;21.66;34.11
61408;BME280;47274;43.054;25.146;2023-05-07T09:19:55;95890.09;;;21.58;34.55
61408;BME280;47274;43.054;25.146;2023-05-07T09:22:21;95872.53;;;20.93;35.13
61408;BME280;47274;43.054;25.146;2023-05-07T09:24:55;95883.34;;;20.50;34.89
61408;BME280;47274;43.054;25.146;2023-05-07T09:27:25;95877.66;;;21.33;35.96
61408;BME280;47274;43.054;25.146;2023-05-07T09:29:52;95851.56;;;19.46;35.93
61408;BME280;47274;43.054;25.146;2023-05-07T09:32:18;95886.56;;;20.52;37.13
61408;BME280;47274;43.054;25.146;2023-05-07T09:34:44;95882.66;;;20.15;34.72
61408;BME280;47274;43.054;25.146;2023-05-07T09:37:12;95882.28;;;19.63;35.37
61408;BME280;47274;43.054;25.146;2023-05-07T09:39:43;95845.38;;;20.15;38.75
61408;BME280;47274;43.054;25.146;2023-05-07T09:42:10;95870.31;;;21.03;34.95
61408;BME280;47274;43.054;25.146;2023-05-07T09:44:43;95848.03;;;20.48;35.73
61408;BME280;47274;43.054;25.146;2023-05-07T09:47:19;95869.34;;;19.77;36.32
61408;BME280;47274;43.054;25.146;2023-05-07T09:49:50;95848.03;;;20.68;37.48
61408;BME280;47274;43.054;25.146;2023-05-07T09:52:20;95796.19;;;21.18;36.98
61408;BME280;47274;43.054;25.146;2023-05-07T09:54:50;95837.56;;;22.11;36.70
61408;BME280;47274;43.054;25.146;2023-05-07T09:57:19;95862.13;;;22.10;33.93
61408;BME280;47274;43.054;25.146;2023-05-07T09:59:52;95873.53;;;20.59;35.38
61408;BME280;47274;43.054;25.146;2023-05-07T10:02:20;95862.50;;;20.70;34.50
61408;BME280;47274;43.054;25.146;2023-05-07T10:04:50;95870.22;;;21.43;34.29
61408;BME280;47274;43.054;25.146;2023-05-07T10:07:21;95865.25;;;21.09;34.21
61408;BME280;47274;43.054;25.146;2023-05-07T10:09:50;95843.53;;;19.95;34.33
61408;BME280;47274;43.054;25.146;2023-05-07T10:12:27;95854.63;;;20.30;34.85
61408;BME280;47274;43.054;25.146;2023-05-07T10:14:54;95826.28;;;21.27;35.63
61408;BME280;47274;43.054;25.146;2023-05-07T10:17:23;95846.44;;;20.93;33.59
61408;BME280;47274;43.054;25.146;2023-05-07T10:19:50;95810.09;;;20.92;35.93
61408;BME280;47274;43.054;25.146;2023-05-07T10:22:17;95825.72;;;22.08;34.27
61408;BME280;47274;43.054;25.146;2023-05-07T10:24:48;95834.94;;;22.74;33.68
61408;BME280;47274;43.054;25.146;2023-05-07T10:27:17;95826.22;;;23.42;34.30
61408;BME280;47274;43.054;25.146;2023-05-07T10:32:33;95844.09;;;22.33;32.24
61408;BME280;47274;43.054;25.146;2023-05-07T10:35:02;95838.22;;;20.96;34.60
61408;BME280;47274;43.054;25.146;2023-05-07T10:37:29;95816.94;;;20.26;37.63
61408;BME280;47274;43.054;25.146;2023-05-07T10:39:56;95829.91;;;21.13;36.11
61408;BME280;47274;43.054;25.146;2023-05-07T10:42:24;95825.38;;;20.48;36.44
61408;BME280;47274;43.054;25.146;2023-05-07T10:44:53;95829.22;;;20.59;35.92
61408;BME280;47274;43.054;25.146;2023-05-07T10:47:27;95826.09;;;21.80;36.01
61408;BME280;47274;43.054;25.146;2023-05-07T10:52:36;95814.06;;;22.92;38.01
61408;BME280;47274;43.054;25.146;2023-05-07T10:57:52;95828.28;;;23.22;34.68
61408;BME280;47274;43.054;25.146;2023-05-07T11:05:30;95825.97;;;22.63;34.04
61408;BME280;47274;43.054;25.146;2023-05-07T11:08:16;95828.06;;;22.55;34.01
61408;BME280;47274;43.054;25.146;2023-05-07T11:11:04;95801.00;;;22.11;34.94
61408;BME280;47274;43.054;25.146;2023-05-07T11:13:48;95801.38;;;22.89;35.00
61408;BME280;47274;43.054;25.146;2023-05-07T11:16:25;95781.72;;;22.62;34.57
61408;BME280;47274;43.054;25.146;2023-05-07T11:19:01;95812.41;;;22.48;34.36
61408;BME280;47274;43.054;25.146;2023-05-07T11:21:37;95813.22;;;22.92;35.38
61408;BME280;47274;43.054;25.146;2023-05-07T11:24:26;95793.41;;;23.03;33.84
61408;BME280;47274;43.054;25.146;2023-05-07T11:26:56;95811.53;;;23.04;34.59
61408;BME280;47274;43.054;25.146;2023-05-07T11:29:24;95808.47;;;21.69;36.12
61408;BME280;47274;43.054;25.146;2023-05-07T11:31:56;95811.38;;;22.49;36.16
61408;BME280;47274;43.054;25.146;2023-05-07T11:34:27;95810.63;;;22.42;35.53
61408;BME280;47274;43.054;25.146;2023-05-07T11:36:55;95804.88;;;22.58;35.48
61408;BME280;47274;43.054;25.146;2023-05-07T11:39:35;95798.53;;;22.47;33.90
61408;BME280;47274;43.054;25.146;2023-05-07T11:42:01;95806.50;;;21.64;34.60
61408;BME280;47274;43.054;25.146;2023-05-07T11:44:41;95796.09;;;21.89;36.97
61408;BME280;47274;43.054;25.146;2023-05-07T11:47:07;95806.25;;;22.36;32.95
61408;BME280;47274;43.054;25.146;2023-05-07T11:49:34;95773.13;;;21.98;33.30
61408;BME280;47274;43.054;25.146;2023-05-07T11:52:00;95778.41;;;22.23;34.35
61408;BME280;47274;43.054;25.146;2023-05-07T11:54:25;95744.25;;;22.18;34.86
61408;BME280;47274;43.054;25.146;2023-05-07T11:56:51;95762.09;;;22.28;35.35
61408;BME280;47274;43.054;25.146;2023-05-07T11:59:18;95777.81;;;22.71;36.51
61408;BME280;47274;43.054;25.146;2023-05-07T12:01:45;95773.06;;;22.61;34.48
61408;BME280;47274;43.054;25.146;2023-05-07T12:04:12;95764.06;;;22.76;35.67
61408;BME280;47274;43.054;25.146;2023-05-07T12:06:38;95760.28;;;23.15;35.73
61408;BME280;47274;43.054;25.146;2023-05-07T12:09:04;95783.84;;;23.15;34.38
61408;BME280;47274;43.054;25.146;2023-05-07T12:11:32;95774.81;;;22.92;35.01
61408;BME280;47274;43.054;25.146;2023-05-07T12:13:59;95753.88;;;22.92;35.42
61408;BME280;47274;43.054;25.146;2023-05-07T12:16:25;95765.34;;;22.66;35.96
61408;BME280;47274;43.054;25.146;2023-05-07T12:18:51;95772.78;;;22.69;35.73
61408;BME280;47274;43.054;25.146;2023-05-07T12:21:18;95756.53;;;22.86;34.65
61408;BME280;47274;43.054;25.146;2023-05-07T12:23:44;95769.97;;;22.71;34.80
61408;BME280;47274;43.054;25.146;2023-05-07T12:26:10;95749.16;;;22.76;35.98
61408;BME280;47274;43.054;25.146;2023-05-07T12:28:37;95763.91;;;22.96;34.46
61408;BME280;47274;43.054;25.146;2023-05-07T12:31:07;95768.69;;;23.17;35.95
61408;BME280;47274;43.054;25.146;2023-05-07T12:33:35;95734.94;;;23.27;37.05
61408;BME280;47274;43.054;25.146;2023-05-07T12:36:03;95765.22;;;22.80;33.71
61408;BME280;47274;43.054;25.146;2023-05-07T12:38:35;95754.38;;;22.39;33.98
61408;BME280;47274;43.054;25.146;2023-05-07T12:41:02;95760.09;;;22.48;33.84
61408;BME280;47274;43.054;25.146;2023-05-07T12:43:29;95761.81;;;22.79;32.95
61408;BME280;47274;43.054;25.146;2023-05-07T12:45:58;95757.06;;;22.94;34.89
61408;BME280;47274;43.054;25.146;2023-05-07T12:48:25;95753.41;;;22.77;33.88
61408;BME280;47274;43.054;25.146;2023-05-07T12:50:55;95761.66;;;22.99;34.79
61408;BME280;47274;43.054;25.146;2023-05-07T12:53:23;95762.31;;;22.26;32.90
61408;BME280;47274;43.054;25.146;2023-05-07T12:55:59;95759.38;;;22.41;34.27
61408;BME280;47274;43.054;25.146;2023-05-07T12:58:30;95756.75;;;22.84;34.43
61408;BME280;47274;43.054;25.146;2023-05-07T13:01:00;95757.69;;;22.90;32.88
61408;BME280;47274;43.054;25.146;2023-05-07T13:03:31;95747.50;;;22.82;33.59
61408;BME280;47274;43.054;25.146;2023-05-07T13:06:02;95753.84;;;22.74;34.26
61408;BME280;47274;43.054;25.146;2023-05-07T13:08:31;95727.63;;;22.56;36.73